Date,TemperatureHighF,TemperatureAvgF,TemperatureLowF,DewpointHighF,DewpointAvgF,DewpointLowF,HumidityHigh,HumidityAvg,HumidityLow,PressureMaxIn,PressureMinIn,WindSpeedMaxMPH,WindSpeedAvgMPH,GustSpeedMaxMPH,PrecipitationSumIn
2013-1-1,33,27,16,26,16,6,79,65,56,29.88,29.68,5,2,15,0.00
2013-1-2,32,16,5,20,8,0,83,72,58,30.08,29.87,4,1,12,0.00
2013-1-3,29,12,3,13,2,-6,78,63,37,30.11,29.94,3,1,7,0.00
2013-1-4,35,29,14,25,21,8,80,72,64,30.03,29.79,5,2,12,0.00
2013-1-5,39,30,20,25,21,13,82,70,50,30.21,29.81,4,2,14,0.00
2013-1-6,43,30,21,32,24,16,84,79,66,30.17,29.91,4,1,13,0.00
2013-1-7,41,28,16,26,20,11,84,72,51,30.41,29.94,3,1,24,0.00
2013-1-8,42,31,18,30,24,13,83,76,60,30.38,30.22,5,2,12,0.04
2013-1-9,43,34,21,34,27,17,84,77,60,30.39,30.00,5,1,13,0.04
2013-1-10,47,36,28,30,25,22,79,64,46,30.57,30.02,6,2,17,0.00
2013-1-11,37,31,23,31,26,19,86,80,68,30.52,30.17,2,0,5,0.06
2013-1-12,42,37,29,37,33,23,87,86,78,30.48,30.10,1,0,4,0.06
2013-1-13,46,42,37,42,39,33,87,86,85,30.19,29.97,3,1,10,0.01
2013-1-14,54,44,36,47,38,28,88,80,52,30.23,29.84,4,1,12,0.00
2013-1-15,39,34,28,28,26,24,82,73,60,30.32,30.19,2,0,7,0.00
2013-1-16,33,31,28,29,27,24,86,83,75,30.21,29.80,2,0,6,0.00
2013-1-17,39,32,27,32,26,16,86,78,61,30.06,29.79,3,1,8,0.07
2013-1-18,28,19,13,17,5,0,71,55,35,30.39,30.01,5,1,10,0.00
2013-1-19,44,33,17,30,22,8,77,63,51,30.30,29.83,6,3,18,0.03
2013-1-20,48,38,26,32,26,11,76,62,40,29.88,29.59,7,4,23,0.00
2013-1-21,29,23,17,17,12,6,82,64,47,30.11,29.81,3,1,9,0.00
2013-1-22,23,17,8,17,6,-2,83,64,39,30.02,29.70,4,1,14,0.00
2013-1-23,16,8,4,2,-5,-10,73,55,39,30.13,29.99,6,2,12,0.00
2013-1-24,20,8,-1,-3,-7,-10,67,50,35,30.17,30.00,4,2,18,0.00
2013-1-25,22,13,5,10,-3,-8,76,48,32,30.31,29.99,4,1,12,0.00
2013-1-26,24,13,5,10,2,-5,81,63,37,30.18,29.93,4,1,12,0.00
2013-1-27,29,17,7,6,3,-1,74,56,35,30.42,30.17,3,1,8,0.00
2013-1-28,31,23,12,22,13,2,84,68,42,30.39,29.96,3,0,6,0.00
2013-1-29,36,30,25,30,25,16,86,83,79,30.29,29.96,2,0,5,0.07
2013-1-30,55,45,33,51,42,29,88,87,85,30.09,29.43,6,2,16,0.11
2013-1-31,57,44,28,53,35,16,88,73,50,29.59,28.99,8,4,20,0.32
2013-2-1,31,26,20,16,10,5,65,52,40,30.07,29.56,5,3,15,0.00
2013-2-2,32,22,15,15,8,3,71,55,42,30.24,29.99,4,2,10,0.00
2013-2-3,22,20,15,16,15,11,82,80,72,30.00,29.89,1,0,3,0.00
2013-2-4,21,21,21,16,16,16,81,81,81,29.92,29.92,1,1,0,0.00
2013-2-5,21,21,21,16,16,16,81,81,81,29.92,29.92,1,1,0,0.00
2013-2-6,35,27,21,25,14,5,84,60,45,30.24,29.85,4,1,11,0.00
2013-2-7,32,22,12,9,7,5,76,52,36,30.49,30.24,3,1,7,0.00
2013-2-8,28,23,17,22,16,9,84,75,54,30.40,29.60,6,3,16,0.00
2013-2-9,25,18,12,16,11,2,84,75,61,30.14,29.58,5,3,16,0.00
2013-2-10,26,20,9,6,4,0,66,51,42,30.41,30.15,3,1,9,0.00
2013-2-11,42,33,26,38,24,6,86,71,42,30.28,29.59,4,1,11,0.18
2013-2-12,42,36,33,34,29,25,86,74,58,29.89,29.60,5,2,15,0.00
2013-2-13,42,33,29,28,24,22,79,70,55,29.88,29.67,3,1,7,0.00
2013-2-14,42,32,22,25,23,18,83,70,48,29.99,29.67,3,1,8,0.00
2013-2-15,49,35,25,34,27,20,85,74,53,30.00,29.85,6,1,14,0.00
2013-2-16,39,33,28,31,26,18,84,75,61,29.98,29.69,2,1,6,0.03
2013-2-17,28,21,14,19,8,1,80,59,44,29.69,29.45,6,4,17,0.00
2013-2-18,33,19,11,6,2,0,60,48,31,30.12,29.66,5,3,14,0.00
2013-2-19,44,33,20,34,23,4,82,67,49,30.10,29.56,4,1,12,0.15
2013-2-20,39,29,23,34,22,12,86,76,54,29.74,29.53,6,3,17,0.00
2013-2-21,32,25,21,16,14,11,74,63,48,30.20,29.72,6,3,18,0.00
2013-2-22,40,29,19,24,20,14,82,69,50,30.38,30.11,5,1,10,0.00
2013-2-23,36,33,28,30,27,22,85,79,75,30.26,29.85,3,1,8,0.00
2013-2-24,34,33,33,30,30,29,87,87,85,29.85,29.73,1,0,4,0.00
2013-2-25,34,34,34,30,30,30,87,87,87,29.75,29.75,0,0,0,0.00
2013-2-26,38,34,32,34,31,29,88,86,84,30.35,30.11,0,0,0,0.00
2013-2-27,39,36,33,36,32,29,88,87,87,30.18,29.57,0,0,0,0.50
2013-2-28,44,36,31,40,32,27,88,86,81,29.66,29.52,0,0,0,0.00
2013-3-1,35,34,31,32,30,28,88,88,87,29.54,29.50,0,0,0,0.00
2013-3-6,37,34,32,32,30,28,87,86,84,30.09,30.00,75,20,0,0.00
2013-3-7,35,31,29,30,27,25,87,86,83,30.08,29.97,75,36,0,0.00
2013-3-8,30,30,29,27,27,26,87,87,86,30.12,29.90,0,0,0,0.00
2013-3-9,30,30,30,27,27,27,87,87,87,30.30,30.10,0,0,0,0.04
2013-3-10,38,33,30,32,29,27,87,84,79,30.42,30.26,2,0,6,0.01
2013-3-11,34,33,32,30,29,28,85,85,84,30.26,30.20,0,0,0,0.00
2013-3-16,34,28,23,20,16,11,71,62,38,29.86,29.78,21,2,34,0.00
2013-3-17,43,28,20,18,12,7,77,54,27,30.25,29.84,4,1,9,0.00
2013-3-18,44,26,13,23,10,3,79,52,28,30.45,30.15,3,1,8,0.00
2013-3-19,35,31,-24,31,27,-59,87,85,13,30.33,29.62,51,2,13,0.00
2013-3-20,43,28,21,32,22,17,87,80,62,29.79,29.67,5,1,12,0.01
2013-3-21,42,29,18,26,19,14,84,70,43,29.81,29.58,2,0,7,0.08
2013-3-22,43,30,21,23,19,14,75,63,43,29.73,29.57,4,2,12,0.03
2013-3-23,41,31,24,24,21,18,80,68,46,29.79,29.68,4,2,12,0.00
2013-3-24,58,35,28,30,23,19,78,62,31,29.87,29.73,3,1,9,0.01
2013-3-25,44,35,26,31,27,21,82,72,59,29.81,29.52,5,2,12,0.00
2013-3-26,47,38,30,31,26,20,76,64,44,29.77,29.52,3,1,9,0.00
2013-3-27,54,38,28,30,25,20,76,60,36,29.86,29.74,4,1,9,0.00
2013-3-28,50,40,34,37,31,29,85,72,50,30.01,29.85,3,1,7,0.00
2013-3-29,61,42,32,35,31,27,83,66,36,30.17,29.99,3,1,9,0.00
2013-3-30,65,41,32,31,25,19,82,58,21,30.13,30.01,3,1,10,0.00
2013-3-31,38,35,28,29,27,22,79,73,71,30.14,30.06,0,0,1,0.00
2013-4-1,38,38,38,29,29,29,71,71,71,30.14,30.14,0,0,0,0.00
2013-4-2,38,38,38,29,29,29,71,71,71,30.14,30.14,0,0,0,0.00
2013-4-3,52,36,27,29,19,11,71,51,25,30.14,29.93,6,3,17,0.00
2013-4-4,61,39,26,25,19,14,69,47,23,30.30,30.00,4,2,10,0.00
2013-4-5,67,44,34,31,26,22,74,53,22,30.02,29.71,4,2,10,0.00
2013-4-6,55,35,28,26,13,6,70,43,19,30.30,29.88,4,2,14,0.00
2013-4-7,63,41,25,38,26,14,81,57,33,30.32,29.88,7,2,17,0.00
2013-4-8,73,51,40,45,38,36,86,65,34,30.11,29.93,3,1,8,0.00
2013-4-9,77,56,44,53,44,39,86,66,37,30.05,29.89,5,2,15,0.01
2013-4-10,70,53,45,54,46,41,87,78,57,30.02,29.85,2,1,5,0.00
2013-4-11,64,49,38,46,39,26,87,71,42,30.18,29.81,4,1,13,0.00
2013-4-12,38,36,34,34,33,31,89,88,85,30.19,29.78,5,2,13,0.00
2013-4-13,53,42,35,42,35,32,89,77,55,29.94,29.74,4,1,10,0.01
2013-4-14,42,37,32,37,32,25,88,84,55,30.24,29.90,3,1,8,0.00
2013-4-15,61,44,29,38,32,24,84,64,41,30.43,30.20,3,1,7,0.00
2013-4-16,73,51,37,50,42,30,83,71,42,30.42,30.07,6,3,18,0.01
2013-4-17,76,54,40,50,38,29,86,59,25,30.37,30.06,4,2,9,0.00
2013-4-18,66,50,33,44,34,27,81,59,38,30.46,30.18,4,2,15,0.00
2013-4-19,83,62,51,63,55,44,86,79,52,30.18,29.67,7,3,20,0.00
2013-4-20,64,52,38,61,44,24,88,76,39,30.22,29.64,6,2,12,0.19
2013-4-21,63,41,30,31,23,19,74,50,26,30.70,30.22,4,2,9,0.00
2013-4-22,63,41,28,34,28,24,83,63,30,30.75,30.55,5,2,24,0.00
2013-4-23,40,38,35,36,33,29,88,83,74,30.55,30.09,4,2,10,0.00
2013-4-24,67,49,39,49,44,36,89,81,47,30.09,29.82,5,2,14,0.00
2013-4-25,73,52,38,48,36,26,86,60,28,30.32,29.82,14,2,14,0.00
2013-4-26,65,49,31,40,34,25,79,57,37,30.43,30.26,4,1,8,0.00
2013-4-27,55,40,32,50,34,27,85,80,49,30.46,30.36,2,1,5,0.00
2013-4-28,75,52,39,44,36,23,84,59,30,30.46,30.22,4,2,9,0.00
2013-4-29,73,57,46,48,38,29,77,53,35,30.32,30.21,4,1,9,0.00
2013-4-30,76,58,43,39,32,25,71,41,22,30.42,30.24,4,1,9,0.00
2013-5-1,78,55,34,43,34,27,73,48,28,30.54,30.35,3,1,8,0.00
2013-5-2,84,60,44,49,40,35,77,53,23,30.51,30.39,5,1,10,0.00
2013-5-3,68,51,38,46,40,32,81,65,44,30.55,30.37,5,1,12,0.00
2013-5-4,59,52,38,46,42,34,86,68,60,30.37,30.30,2,1,4,0.00
2013-5-5,70,56,32,54,40,27,84,58,37,30.36,30.24,3,1,8,0.00
2013-5-6,76,56,34,49,41,29,86,62,30,30.32,30.14,3,1,9,0.00
2013-5-7,83,63,44,57,50,39,85,64,36,30.24,30.13,3,1,8,0.00
2013-5-8,71,60,50,63,55,45,88,83,56,30.26,30.05,3,1,14,0.00
2013-5-9,66,59,54,61,55,51,89,88,82,30.06,29.90,2,0,5,0.01
2013-5-10,82,64,51,64,55,48,90,74,44,30.04,29.91,2,1,8,0.00
2013-5-11,65,62,58,60,57,52,88,84,73,29.94,29.72,4,1,10,0.22
2013-5-12,68,58,45,60,50,34,89,76,48,29.90,29.65,4,1,12,0.01
2013-5-13,62,48,40,38,32,28,74,55,38,30.09,29.84,4,2,12,0.00
2013-5-14,59,48,38,36,32,29,78,56,36,30.11,29.98,4,1,10,0.00
2013-5-15,68,50,34,50,40,29,87,72,41,30.06,29.70,4,1,45,0.01
2013-5-16,81,66,52,50,44,36,87,49,24,29.83,29.67,5,2,10,0.00
2013-5-17,71,57,45,46,40,36,79,56,32,30.22,29.83,3,1,10,0.00
2013-5-18,74,57,40,48,42,35,84,60,33,30.36,30.21,2,1,7,0.00
2013-5-19,72,58,49,55,50,43,88,74,52,30.40,30.22,2,1,8,0.04
2013-5-20,81,67,55,66,59,52,89,78,59,30.39,29.99,60,1,13,0.00
2013-5-21,89,66,50,70,58,47,88,77,48,30.08,29.93,4,1,9,0.07
2013-5-22,78,62,50,70,57,46,89,84,71,30.08,29.91,2,1,9,0.12